• Join FlightAware (Why Join?)
  • Login
  • US Flag 
01:12AM EDT


 

Airport Tracker/Info


-or-


 

Live Flight TrackerFlight Track Log ✈ AIP5009 ✈ 23-Aug-2013 ✈ KMSO - KBIL

Flight Track Log - Related Links

Times and Time Zones

All times are in EDT time to prevent confusion due to time zone crossing. See the AIP5009 flight status page for this flight to view local times or setup timezone preferences in your user account.

Time Position Orientation Groundspeed Altitude Reporting Facility
EDT Latitude Longitude Course Direction KTS MPH feet Rate Location/Type
04:53AM 46.9297 -114.1186 109° East 129 148 4,700  Level Salt Lake Center
04:54AM 46.8997 -114.1372 203° Southwest 160 184 7,800 2,580 Climbing Salt Lake Center
04:55AM 46.8878 -114.0694 104° East 183 211 10,000 2,400 Climbing Salt Lake Center
04:56AM 46.8736 -113.9881 104° East 191 220 12,600 2,400 Climbing Salt Lake Center
04:57AM 46.8202 -113.5400 107° East  Level Estimated
04:57AM 46.8558 -113.9114 109° East 199 229 14,800  Level Salt Lake Center
04:58AM 46.7992 -113.4506 109° East  Level FlightAware Approximate
04:58AM 46.8372 -113.8317 109° East 207 238 16,800  Level Salt Lake Center
04:59AM 46.8206 -113.7461 106° East 219 252 18,500 1,620 Climbing Salt Lake Center
05:00AM 46.8172 -113.6644 93° East 226 260 20,100 1,500 Climbing Salt Lake Center
05:01AM 46.8031 -113.5750 103° East 228 262 21,600 1,380 Climbing Salt Lake Center
05:02AM 46.7878 -113.4850 104° East 229 264 22,900 720 Climbing Salt Lake Center
05:03AM 46.7725 -113.3886 103° East 245 282 23,100 60 Climbing Salt Lake Center
05:04AM 46.7578 -113.2817 101° East 268 308 23,100  Level Salt Lake Center
05:05AM 46.7372 -113.1775 106° East 269 310 23,100 -60 Level Salt Lake Center
05:06AM 46.7169 -113.0733 106° East 269 310 23,000 -60 Descending Salt Lake Center
05:07AM 46.6972 -112.9681 105° East 271 312 23,000  Level Salt Lake Center
05:08AM 46.6806 -112.8519 102° East 268 308 23,000  Level Salt Lake Center
05:09AM 46.6539 -112.7508 111° Southeast 268 308 23,100  Climbing Salt Lake Center
05:10AM 46.6369 -112.6439 103° East 270 311 23,000  Descending Salt Lake Center
05:11AM 46.6264 -112.5314 98° East 279 321 23,100  Climbing Salt Lake Center
05:12AM 46.6050 -112.4244 106° East 278 320 23,100  Level Salt Lake Center
05:13AM 46.5811 -112.3164 108° East 279 321 23,100 -60 Level Salt Lake Center
05:14AM 46.5622 -112.2053 104° East 281 323 23,000  Descending Salt Lake Center
05:15AM 46.5414 -112.0942 105° East 284 327 23,100 60 Climbing Salt Lake Center
05:16AM 46.5272 -111.9806 100° East 286 329 23,200  Climbing Salt Lake Center
05:17AM 46.5083 -111.8689 104° East 288 331 23,100 -60 Descending Salt Lake Center
05:18AM 46.4872 -111.7603 106° East 283 326 23,100  Level Salt Lake Center
05:19AM 46.4719 -111.6475 101° East 284 327 23,100 -60 Level Salt Lake Center
05:20AM 46.4639 -111.5314 96° East 289 333 23,000 -60 Descending Salt Lake Center
05:21AM 46.4508 -111.4178 99° East 290 334 23,000  Level Salt Lake Center
05:22AM 46.4333 -111.3089 103° East 286 329 23,000  Level Salt Lake Center
05:23AM 46.4189 -111.2050 101° East 275 316 23,000  Level Salt Lake Center
05:24AM 46.4111 -111.0903 96° East 285 328 23,100  Climbing Salt Lake Center
05:25AM 46.3861 -110.9842 109° East 282 325 23,100 -120 Level Salt Lake Center
05:26AM 46.3500 -110.8728 115° Southeast 284 327 22,900 -60 Descending Salt Lake Center
05:27AM 46.3222 -110.7681 111° Southeast 281 323 23,000  Climbing Salt Lake Center
05:28AM 46.2922 -110.6656 113° Southeast 279 321 23,000 -60 Level Salt Lake Center
05:29AM 46.2800 -110.5533 99° East 283 326 22,900  Descending Salt Lake Center
05:30AM 46.2567 -110.4489 108° East 278 320 23,000  Climbing Salt Lake Center
05:31AM 46.2303 -110.3439 110° East 277 319 23,000 -240 Level Salt Lake Center
05:32AM 46.2006 -110.2369 112° Southeast 287 330 22,600 -660 Descending Salt Lake Center
05:33AM 46.1664 -110.1283 114° Southeast 295 339 21,700 -900 Descending Salt Lake Center
05:34AM 46.1425 -110.0094 106° East 306 352 20,900 -720 Descending Salt Lake Center
05:35AM 46.1253 -109.8911 102° East 303 349 20,300 -720 Descending Salt Lake Center
05:36AM 46.1056 -109.7700 103° East 301 346 19,500 -900 Descending Salt Lake Center
05:37AM 46.0758 -109.6519 110° East 294 338 18,600 -720 Descending Salt Lake Center
05:38AM 46.0489 -109.5433 110° East 290 334 18,100 -600 Descending Salt Lake Center
05:39AM 46.0211 -109.4364 110° East 288 331 17,400 -780 Descending Salt Lake Center
05:40AM 45.9983 -109.3278 107° East 287 330 16,600 -900 Descending Salt Lake Center
05:41AM 45.9761 -109.2161 106° East 293 337 15,600 -900 Descending Salt Lake Center
05:42AM 45.9511 -109.1064 108° East 293 337 14,900 -960 Descending Salt Lake Center
05:43AM 45.9236 -108.9889 109° East 289 333 13,700 -1,440 Descending Salt Lake Center
05:44AM 45.8975 -108.8789 109° East 294 338 12,100 -2,040 Descending Salt Lake Center
05:45AM 45.8711 -108.7686 109° East 295 339 9,700 -2,580 Descending Salt Lake Center
05:46AM 45.8450 -108.6686 111° Southeast 278 320 6,900 -2,580 Descending Salt Lake Center
05:47AM 45.8239 -108.5944 112° Southeast 207 238 4,600 -1,680 Descending Salt Lake Center
05:48AM 45.8086 -108.5406 112° Southeast 144 166 3,600 -1,020 Descending Salt Lake Center
05:50AM 45.8077 -108.5429 110° East  Level Estimated